createdAt,value
2022-11-19T00:01:31.067Z,99463.25
2022-11-19T00:06:34.261Z,99463.70
2022-11-19T00:11:56.209Z,99467.13
2022-11-19T00:16:59.420Z,99469.88
2022-11-19T00:22:02.732Z,99470.11
2022-11-19T00:27:06.254Z,99471.25
2022-11-19T00:32:09.557Z,99475.73
2022-11-19T00:37:12.770Z,99476.23
2022-11-19T00:42:16.080Z,99477.80
2022-11-19T00:47:19.697Z,99477.07
2022-11-19T00:52:22.903Z,99476.05
2022-11-19T00:57:26.109Z,99470.61
2022-11-19T01:02:29.422Z,99472.20
2022-11-19T01:07:32.686Z,99469.84
2022-11-19T01:12:56.013Z,99470.86
2022-11-19T01:17:59.222Z,99472.09
2022-11-19T01:23:02.530Z,99475.13
2022-11-19T01:28:06.966Z,99476.76
2022-11-19T01:33:10.792Z,99479.84
2022-11-19T01:38:14.104Z,99478.60
2022-11-19T01:43:17.412Z,99476.39
2022-11-19T01:48:32.600Z,99479.88
2022-11-19T01:53:37.039Z,99473.73
2022-11-19T01:58:42.401Z,99476.36
2022-11-19T02:03:47.280Z,99480.40
2022-11-19T02:08:50.963Z,99477.77
2022-11-19T02:14:03.491Z,99474.38
2022-11-19T02:19:32.611Z,99475.50
2022-11-19T02:24:53.636Z,99477.09
2022-11-19T02:30:05.134Z,99474.89
2022-11-19T02:35:23.600Z,99470.31
2022-11-19T02:40:33.671Z,99469.41
2022-11-19T02:46:01.761Z,99470.45
2022-11-19T02:51:07.723Z,99475.00
2022-11-19T02:56:17.819Z,99480.05
2022-11-19T03:01:41.951Z,99475.30
2022-11-19T03:06:45.624Z,99472.28
2022-11-19T03:11:57.842Z,99470.67
2022-11-19T03:17:13.541Z,99474.34
2022-11-19T03:22:25.355Z,99472.11
2022-11-19T03:27:38.600Z,99471.59
2022-11-19T03:33:08.123Z,99474.66
2022-11-19T03:38:18.499Z,99474.42
2022-11-19T03:43:28.163Z,99473.44
2022-11-19T03:48:31.776Z,99478.66
2022-11-19T03:53:35.190Z,99474.94
2022-11-19T03:58:44.331Z,99472.64
2022-11-19T04:04:07.514Z,99475.46
2022-11-19T04:09:11.031Z,99476.30
2022-11-19T04:14:14.441Z,99475.34
2022-11-19T04:19:18.605Z,99476.63
2022-11-19T04:24:22.090Z,99478.86
2022-11-19T04:29:25.502Z,99481.14
2022-11-19T04:34:29.021Z,99481.34
2022-11-19T04:39:32.435Z,99482.64
2022-11-19T04:44:35.943Z,99478.14
2022-11-19T04:49:39.357Z,99479.31
2022-11-19T04:54:42.773Z,99479.88
2022-11-19T04:59:46.286Z,99481.36
2022-11-19T05:04:49.704Z,99473.01
2022-11-19T05:09:53.113Z,99468.61
2022-11-19T05:14:56.729Z,99467.46
2022-11-19T05:20:00.552Z,99467.91
2022-11-19T05:25:04.478Z,99464.32
2022-11-19T05:30:08.716Z,99461.05
2022-11-19T05:35:12.021Z,99462.48
2022-11-19T05:40:15.536Z,99464.27
2022-11-19T05:45:19.157Z,99463.77
2022-11-19T05:50:22.671Z,99473.00
2022-11-19T05:55:26.186Z,99470.77
2022-11-19T06:00:29.642Z,99478.94
2022-11-19T06:05:38.774Z,99485.32
2022-11-19T06:10:43.594Z,99491.48
2022-11-19T06:15:47.314Z,99499.42
2022-11-19T06:20:50.627Z,99511.33
2022-11-19T06:25:55.061Z,99515.46
2022-11-19T06:30:58.372Z,99526.55
2022-11-19T06:36:01.900Z,99529.35
2022-11-19T06:41:06.019Z,99524.25
2022-11-19T06:46:11.073Z,99526.89
2022-11-19T06:51:14.382Z,99528.14
2022-11-19T06:56:17.898Z,99527.90
2022-11-19T07:01:21.330Z,99526.62
2022-11-19T07:06:24.825Z,99531.45
2022-11-19T07:11:28.244Z,99531.65
2022-11-19T07:16:34.734Z,99529.38
2022-11-19T07:21:38.342Z,99533.48
2022-11-19T07:26:41.862Z,99534.30
2022-11-19T07:31:47.214Z,99535.17
2022-11-19T07:36:50.832Z,99532.42
2022-11-19T07:42:13.087Z,99539.64
2022-11-19T07:47:16.605Z,99538.05
2022-11-19T07:52:20.119Z,99537.04
2022-11-19T07:57:29.903Z,99538.72
2022-11-19T08:02:33.916Z,99543.32
2022-11-19T08:07:38.534Z,99543.92
2022-11-19T08:13:03.393Z,99542.52
2022-11-19T08:18:12.824Z,99541.42
2022-11-19T08:23:16.335Z,99541.86
2022-11-19T08:28:19.856Z,99542.71
2022-11-19T08:33:23.375Z,99548.76
2022-11-19T08:39:00.779Z,99550.09
2022-11-19T08:44:04.293Z,99559.28
2022-11-19T08:49:08.527Z,99557.73
2022-11-19T08:54:13.422Z,99563.60
2022-11-19T08:59:17.053Z,99560.64
2022-11-19T09:04:21.049Z,99564.81
2022-11-19T09:09:24.856Z,99563.45
2022-11-19T09:14:28.560Z,99567.17
2022-11-19T09:19:31.870Z,99565.71
2022-11-19T09:24:35.387Z,99570.50
2022-11-19T09:29:38.803Z,99569.33
2022-11-19T09:34:42.316Z,99576.98
2022-11-19T09:39:46.241Z,99571.17
2022-11-19T09:45:10.959Z,99570.43
2022-11-19T09:50:21.841Z,99573.63
2022-11-19T09:55:44.122Z,99574.06
2022-11-19T10:00:47.611Z,99574.44
2022-11-19T10:05:56.661Z,99574.42
2022-11-19T10:11:06.523Z,99570.45
2022-11-19T10:16:09.834Z,99573.96
2022-11-19T10:21:30.860Z,99575.13
2022-11-19T10:26:41.031Z,99566.48
2022-11-19T10:31:49.874Z,99565.29
2022-11-19T10:37:07.642Z,99560.75
2022-11-19T10:42:26.700Z,99566.45
2022-11-19T10:47:37.488Z,99567.88
2022-11-19T10:52:45.619Z,99567.87
2022-11-19T10:57:52.710Z,99567.95
2022-11-19T11:03:03.266Z,99561.98
2022-11-19T11:08:11.620Z,99560.84
2022-11-19T11:13:47.798Z,99559.11
2022-11-19T11:18:54.048Z,99560.48
2022-11-19T11:23:58.153Z,99562.17
2022-11-19T11:29:24.151Z,99562.86
2022-11-19T11:34:31.981Z,99562.69
2022-11-19T11:39:39.271Z,99560.69
2022-11-19T11:44:52.619Z,99561.39
2022-11-19T11:50:12.212Z,99558.62
2022-11-19T11:55:24.643Z,99557.73
2022-11-19T12:00:39.108Z,99558.27
2022-11-19T12:06:02.718Z,99556.64
2022-11-19T12:11:54.362Z,99559.69
2022-11-19T12:17:00.517Z,99557.45
2022-11-19T12:22:16.216Z,99558.22
2022-11-19T12:27:28.846Z,99563.21
2022-11-19T12:32:47.411Z,99559.03
2022-11-19T12:38:06.190Z,99558.36
2022-11-19T12:43:46.877Z,99558.86
2022-11-19T12:48:50.285Z,99558.39
2022-11-19T12:53:56.365Z,99557.67
2022-11-19T12:59:41.660Z,99561.95
2022-11-19T13:04:55.209Z,99563.84
2022-11-19T13:10:06.405Z,99562.95
2022-11-19T13:15:21.491Z,99565.89
2022-11-19T13:20:31.971Z,99574.16
2022-11-19T13:25:47.878Z,99577.79
2022-11-19T13:30:54.258Z,99576.16
2022-11-19T13:36:09.958Z,99578.03
2022-11-19T13:41:23.716Z,99579.46
2022-11-19T13:46:30.917Z,99584.35
2022-11-19T13:51:37.405Z,99591.06
2022-11-19T13:56:47.678Z,99596.58
2022-11-19T14:02:31.026Z,99596.20
2022-11-19T14:07:55.124Z,99592.25
2022-11-19T14:13:26.086Z,99594.27
2022-11-19T14:19:01.449Z,99601.61
2022-11-19T14:24:45.616Z,99608.52
2022-11-19T14:29:49.439Z,99611.19
2022-11-19T14:35:01.555Z,99614.11
2022-11-19T14:40:15.821Z,99615.94
2022-11-19T14:45:20.729Z,99618.23
2022-11-19T14:50:29.258Z,99618.37
2022-11-19T14:55:34.776Z,99619.83
2022-11-19T15:00:41.491Z,99622.95
2022-11-19T15:05:46.813Z,99622.50
2022-11-19T15:11:05.394Z,99622.41
2022-11-19T15:16:12.483Z,99623.59
2022-11-19T15:21:59.823Z,99620.99
2022-11-19T15:27:15.425Z,99618.81
2022-11-19T15:32:28.157Z,99621.11
2022-11-19T15:37:53.690Z,99623.55
2022-11-19T15:43:14.202Z,99621.70
2022-11-19T15:48:24.015Z,99624.05
2022-11-19T15:53:28.501Z,99626.19
2022-11-19T15:58:43.283Z,99627.38
2022-11-19T16:03:47.719Z,99625.79
2022-11-19T16:08:55.228Z,99630.37
2022-11-19T16:14:17.277Z,99631.77
2022-11-19T16:19:21.266Z,99636.14
2022-11-19T16:24:45.507Z,99634.38
2022-11-19T16:29:49.349Z,99630.98
2022-11-19T16:34:52.851Z,99632.02
2022-11-19T16:39:56.462Z,99634.97
2022-11-19T16:45:08.697Z,99635.67
2022-11-19T16:50:42.455Z,99638.13
2022-11-19T16:55:52.374Z,99643.48
2022-11-19T17:00:59.754Z,99648.20
2022-11-19T17:06:04.832Z,99657.89
2022-11-19T17:11:41.115Z,99663.73
2022-11-19T17:16:52.312Z,99666.92
2022-11-19T17:22:18.273Z,99666.33
2022-11-19T17:27:33.138Z,99670.55
2022-11-19T17:32:40.847Z,99678.17
2022-11-19T17:37:44.114Z,99681.27
2022-11-19T17:43:06.105Z,99677.68
2022-11-19T17:48:22.318Z,99672.61
2022-11-19T17:53:25.736Z,99670.91
2022-11-19T17:58:29.350Z,99675.84
2022-11-19T18:03:32.868Z,99677.05
2022-11-19T18:08:37.305Z,99680.81
2022-11-19T18:13:42.686Z,99681.42
2022-11-19T18:18:46.315Z,99676.11
2022-11-19T18:23:52.364Z,99677.16
2022-11-19T18:28:56.898Z,99679.54
2022-11-19T18:34:00.101Z,99678.42
2022-11-19T18:39:03.623Z,99684.31
2022-11-19T18:44:30.073Z,99689.05
2022-11-19T18:49:35.323Z,99690.29
2022-11-19T18:54:38.745Z,99690.13
2022-11-19T18:59:42.360Z,99686.30
2022-11-19T19:04:50.679Z,99684.09
2022-11-19T19:09:54.614Z,99678.46
2022-11-19T19:14:59.256Z,99683.19
2022-11-19T19:20:02.565Z,99685.25
2022-11-19T19:25:06.397Z,99684.30
2022-11-19T19:30:10.595Z,99681.58
2022-11-19T19:35:13.932Z,99676.92
2022-11-19T19:40:17.449Z,99675.11
2022-11-19T19:45:20.863Z,99677.10
2022-11-19T19:50:24.171Z,99675.89
2022-11-19T19:55:27.686Z,99672.11
2022-11-19T20:00:31.202Z,99680.10
2022-11-19T20:05:34.615Z,99678.75
2022-11-19T20:10:38.132Z,99680.05
2022-11-19T20:15:41.646Z,99675.81
2022-11-19T20:20:45.162Z,99679.44
2022-11-19T20:25:51.344Z,99671.67
2022-11-19T20:31:08.454Z,99675.63
2022-11-19T20:36:14.879Z,99675.83
2022-11-19T20:41:38.237Z,99673.58
2022-11-19T20:46:42.794Z,99673.11
2022-11-19T20:51:46.813Z,99675.81
2022-11-19T20:56:52.371Z,99676.52
2022-11-19T21:01:57.159Z,99677.48
2022-11-19T21:07:00.612Z,99676.38
2022-11-19T21:12:04.763Z,99674.77
2022-11-19T21:17:08.069Z,99669.73
2022-11-19T21:22:11.590Z,99669.27
2022-11-19T21:27:15.101Z,99671.05
2022-11-19T21:32:18.924Z,99667.05
2022-11-19T21:37:22.336Z,99669.69
2022-11-19T21:42:26.263Z,99664.86
2022-11-19T21:47:29.674Z,99658.71
2022-11-19T21:52:33.196Z,99654.92
2022-11-19T21:57:36.602Z,99655.96
2022-11-19T22:02:40.325Z,99650.67
2022-11-19T22:07:46.503Z,99639.59
2022-11-19T22:12:49.914Z,99636.44
2022-11-19T22:17:53.432Z,99639.17
2022-11-19T22:22:58.487Z,99645.33
2022-11-19T22:28:02.204Z,99641.46
2022-11-19T22:33:05.821Z,99640.79
2022-11-19T22:38:09.240Z,99642.71
2022-11-19T22:43:12.751Z,99644.89
2022-11-19T22:48:16.263Z,99641.80
2022-11-19T22:53:19.785Z,99645.65
2022-11-19T22:58:23.297Z,99644.63
2022-11-19T23:03:27.327Z,99641.84
2022-11-19T23:08:30.845Z,99638.90
2022-11-19T23:13:39.288Z,99641.52
2022-11-19T23:18:50.570Z,99636.15
2022-11-19T23:23:54.907Z,99631.36
2022-11-19T23:28:59.138Z,99629.48
2022-11-19T23:34:02.548Z,99628.86
2022-11-19T23:39:09.907Z,99622.19
2022-11-19T23:44:13.475Z,99621.64
2022-11-19T23:49:16.986Z,99621.69
2022-11-19T23:54:20.502Z,99620.42
2022-11-19T23:59:25.771Z,99619.39
